Startpagina
METAR-TAF:

METAR-TAF

Vliegvelden :

Calcutta, India

breedte: 22-39N, lengte: 088-27E, hoogte: 4 m

Actueel weer

Dit bericht is 28 minuten geleden gemaakt, om 21:30 UTC
Wind 4 kt uit het zuidoosten
Temperatuur 28°C
Vochtigheid 94%
Druk 997 hPa
Zicht: 2800 m
Weinig wolken op 2000 ft
Verspreide wolken op 10000 ft
Heiigheid

METAR: VECC 172130Z 14004KT 2800 HZ FEW020 SCT100 28/27 Q0997 NOSIG

Tijdstip: 03:28 (21:58 UTC)

Verwachting

Dit bericht is 1 uur en het 58 minuten geleden gemaakt, om 20:00 UTC
Verwachting geldig van 17 om 21 UTC tot 18 om 06 UTC
Wind 5 kt uit het zuiden
Zicht: 2600 m
Verspreide wolken op 2000 ft
Verspreide wolken op 10000 ft
Heiigheid
Wijzigt naar
van 18 om 02 UTC tot 18 om 04 UTC
Wind 10 kt uit het westzuidwesten
Zicht: 3300 m
Weinig wolken op 2000 ft
Verspreide wolken op 10000 ft
Heiigheid

TAF: VECC 172000Z 1721/1806 18005KT 2600 HZ SCT020 SCT100 BECMG 1802/1804 24010KT 3300 HZ FEW020 SCT100

Waarnemingen en weersverwachtingen van meer dan 4000 vliegvelden (METAR en TAF).

De beschikbare stations zijn de gele en rode punten op de kaart.

Ga met uw muis naar het station om de naam te zien.

Klik dan om waarnemingen en weersverwachtingen te zien.

kaart wijzigen: klik op de groene knoppen met een zwart kruis om in te zoomen, op de groene knop met een streepje om uit te zoomen of op de groene pijlen voor aangrenzende kaarten.


METAR-TAF: